sensor_id;sensor_type;location;lat;lon;timestamp;pressure;altitude;pressure_sealevel;temperature;humidity
48563;BME280;34981;49.104;11.396;2023-08-21T00:02:12;95980.75;;;23.12;100.00
48563;BME280;34981;49.104;11.396;2023-08-21T00:04:39;96028.91;;;23.25;100.00
48563;BME280;34981;49.104;11.396;2023-08-21T00:07:06;96005.16;;;23.29;100.00
48563;BME280;34981;49.104;11.396;2023-08-21T00:09:36;96073.09;;;23.08;100.00
48563;BME280;34981;49.104;11.396;2023-08-21T00:12:03;96097.53;;;23.13;100.00
48563;BME280;34981;49.104;11.396;2023-08-21T00:14:30;96068.03;;;23.22;100.00
48563;BME280;34981;49.104;11.396;2023-08-21T00:16:57;96036.00;;;23.26;100.00
48563;BME280;34981;49.104;11.396;2023-08-21T00:19:24;95993.72;;;23.27;100.00
48563;BME280;34981;49.104;11.396;2023-08-21T00:21:51;95969.97;;;23.19;100.00
48563;BME280;34981;49.104;11.396;2023-08-21T00:24:19;95997.88;;;23.09;100.00
48563;BME280;34981;49.104;11.396;2023-08-21T00:26:46;96021.22;;;23.15;100.00
48563;BME280;34981;49.104;11.396;2023-08-21T00:29:13;96014.13;;;23.14;100.00
48563;BME280;34981;49.104;11.396;2023-08-21T00:31:40;96003.16;;;23.02;100.00
48563;BME280;34981;49.104;11.396;2023-08-21T00:34:07;96043.41;;;22.98;100.00
48563;BME280;34981;49.104;11.396;2023-08-21T00:36:35;96042.72;;;23.01;100.00
48563;BME280;34981;49.104;11.396;2023-08-21T00:39:02;96048.78;;;22.95;100.00
48563;BME280;34981;49.104;11.396;2023-08-21T00:41:29;96053.03;;;22.92;100.00
48563;BME280;34981;49.104;11.396;2023-08-21T00:43:56;96098.47;;;22.69;100.00
48563;BME280;34981;49.104;11.396;2023-08-21T00:46:24;96183.28;;;22.53;100.00
48563;BME280;34981;49.104;11.396;2023-08-21T00:48:52;96287.97;;;22.46;100.00
48563;BME280;34981;49.104;11.396;2023-08-21T00:51:19;96340.75;;;22.56;100.00
48563;BME280;34981;49.104;11.396;2023-08-21T00:53:46;96329.38;;;22.45;100.00
48563;BME280;34981;49.104;11.396;2023-08-21T00:56:14;96325.13;;;22.35;100.00
48563;BME280;34981;49.104;11.396;2023-08-21T00:58:42;96319.22;;;22.45;100.00
48563;BME280;34981;49.104;11.396;2023-08-21T01:01:09;96256.38;;;22.61;100.00
48563;BME280;34981;49.104;11.396;2023-08-21T01:03:36;96179.34;;;22.75;100.00
48563;BME280;34981;49.104;11.396;2023-08-21T01:06:04;96092.88;;;22.65;100.00
48563;BME280;34981;49.104;11.396;2023-08-21T01:13:34;96053.84;;;22.56;100.00
48563;BME280;34981;49.104;11.396;2023-08-21T01:16:09;96050.50;;;22.50;100.00
48563;BME280;34981;49.104;11.396;2023-08-21T01:18:37;96075.53;;;22.49;100.00
48563;BME280;34981;49.104;11.396;2023-08-21T01:21:05;96074.72;;;22.36;100.00
48563;BME280;34981;49.104;11.396;2023-08-21T01:23:33;96103.75;;;22.49;100.00
48563;BME280;34981;49.104;11.396;2023-08-21T01:26:01;96103.94;;;22.44;100.00
48563;BME280;34981;49.104;11.396;2023-08-21T01:28:30;96103.75;;;22.49;100.00
48563;BME280;34981;49.104;11.396;2023-08-21T01:31:21;96110.13;;;22.41;100.00
48563;BME280;34981;49.104;11.396;2023-08-21T01:33:46;96132.94;;;22.45;100.00
48563;BME280;34981;49.104;11.396;2023-08-21T01:36:14;96132.94;;;22.45;100.00
48563;BME280;34981;49.104;11.396;2023-08-21T01:38:41;96144.09;;;22.28;100.00
48563;BME280;34981;49.104;11.396;2023-08-21T01:41:11;96263.75;;;22.16;100.00
48563;BME280;34981;49.104;11.396;2023-08-21T01:43:38;96291.59;;;22.38;100.00
48563;BME280;34981;49.104;11.396;2023-08-21T01:46:05;96286.78;;;22.35;100.00
48563;BME280;34981;49.104;11.396;2023-08-21T01:48:33;96280.06;;;22.45;100.00
48563;BME280;34981;49.104;11.396;2023-08-21T01:51:01;96266.84;;;22.47;100.00
48563;BME280;34981;49.104;11.396;2023-08-21T01:53:28;96261.69;;;22.45;100.00
48563;BME280;34981;49.104;11.396;2023-08-21T01:55:55;96265.78;;;22.39;100.00
48563;BME280;34981;49.104;11.396;2023-08-21T01:58:23;96314.59;;;22.25;100.00
48563;BME280;34981;49.104;11.396;2023-08-21T02:00:50;96398.47;;;22.30;100.00
48563;BME280;34981;49.104;11.396;2023-08-21T02:03:17;96407.44;;;22.39;100.00
48563;BME280;34981;49.104;11.396;2023-08-21T02:05:44;96478.22;;;22.28;100.00
48563;BME280;34981;49.104;11.396;2023-08-21T02:08:12;96544.59;;;22.34;100.00
48563;BME280;34981;49.104;11.396;2023-08-21T02:10:50;96621.97;;;22.22;100.00
48563;BME280;34981;49.104;11.396;2023-08-21T02:13:18;96725.44;;;22.17;100.00
48563;BME280;34981;49.104;11.396;2023-08-21T02:15:45;96840.28;;;22.22;100.00
48563;BME280;34981;49.104;11.396;2023-08-21T02:18:13;96940.50;;;22.23;100.00
48563;BME280;34981;49.104;11.396;2023-08-21T02:20:40;97036.88;;;22.33;100.00
48563;BME280;34981;49.104;11.396;2023-08-21T02:23:09;97102.13;;;22.31;100.00
48563;BME280;34981;49.104;11.396;2023-08-21T02:25:36;97180.94;;;22.26;100.00
48563;BME280;34981;49.104;11.396;2023-08-21T02:28:03;97268.75;;;22.29;100.00
48563;BME280;34981;49.104;11.396;2023-08-21T02:30:31;97375.94;;;22.28;100.00
48563;BME280;34981;49.104;11.396;2023-08-21T02:32:58;97460.72;;;22.33;100.00
48563;BME280;34981;49.104;11.396;2023-08-21T02:35:26;97550.03;;;22.34;100.00
48563;BME280;34981;49.104;11.396;2023-08-21T02:37:53;97661.03;;;22.31;100.00
48563;BME280;34981;49.104;11.396;2023-08-21T02:40:20;97743.13;;;22.36;100.00
48563;BME280;34981;49.104;11.396;2023-08-21T02:42:47;97804.75;;;22.39;100.00
48563;BME280;34981;49.104;11.396;2023-08-21T02:45:14;97874.19;;;22.34;100.00
48563;BME280;34981;49.104;11.396;2023-08-21T02:47:41;97972.38;;;22.27;100.00
48563;BME280;34981;49.104;11.396;2023-08-21T02:50:09;98049.97;;;22.23;100.00
48563;BME280;34981;49.104;11.396;2023-08-21T02:52:37;98100.19;;;22.37;100.00
48563;BME280;34981;49.104;11.396;2023-08-21T02:57:45;98191.16;;;22.39;100.00
48563;BME280;34981;49.104;11.396;2023-08-21T03:00:12;98267.72;;;22.30;100.00
48563;BME280;34981;49.104;11.396;2023-08-21T03:02:39;98282.91;;;22.46;100.00
48563;BME280;34981;49.104;11.396;2023-08-21T03:05:11;98283.31;;;22.35;100.00
48563;BME280;34981;49.104;11.396;2023-08-21T03:07:38;98365.88;;;22.23;100.00
48563;BME280;34981;49.104;11.396;2023-08-21T03:10:06;98404.72;;;22.30;100.00
48563;BME280;34981;49.104;11.396;2023-08-21T03:12:34;98401.44;;;22.28;100.00
48563;BME280;34981;49.104;11.396;2023-08-21T03:15:01;98445.31;;;22.23;100.00
48563;BME280;34981;49.104;11.396;2023-08-21T03:17:28;98481.72;;;22.29;100.00
48563;BME280;34981;49.104;11.396;2023-08-21T03:19:56;98477.38;;;22.28;100.00
48563;BME280;34981;49.104;11.396;2023-08-21T03:22:24;98453.31;;;22.20;100.00
48563;BME280;34981;49.104;11.396;2023-08-21T03:24:51;98460.06;;;22.32;100.00
48563;BME280;34981;49.104;11.396;2023-08-21T03:27:18;98412.13;;;22.30;100.00
48563;BME280;34981;49.104;11.396;2023-08-21T03:29:45;98379.03;;;22.21;100.00
48563;BME280;34981;49.104;11.396;2023-08-21T03:32:18;98343.47;;;22.16;100.00
48563;BME280;34981;49.104;11.396;2023-08-21T03:34:45;98310.84;;;22.14;100.00
48563;BME280;34981;49.104;11.396;2023-08-21T03:37:12;98293.91;;;22.12;100.00
48563;BME280;34981;49.104;11.396;2023-08-21T03:39:40;98263.81;;;22.07;100.00
48563;BME280;34981;49.104;11.396;2023-08-21T03:42:10;98254.97;;;22.16;100.00
48563;BME280;34981;49.104;11.396;2023-08-21T03:44:38;98220.22;;;22.11;100.00
48563;BME280;34981;49.104;11.396;2023-08-21T03:47:05;98192.09;;;22.05;100.00
48563;BME280;34981;49.104;11.396;2023-08-21T03:49:36;98193.53;;;21.98;100.00
48563;BME280;34981;49.104;11.396;2023-08-21T03:52:04;98206.41;;;21.97;100.00
48563;BME280;34981;49.104;11.396;2023-08-21T03:54:31;98232.91;;;22.02;100.00
48563;BME280;34981;49.104;11.396;2023-08-21T03:56:58;98234.56;;;22.03;100.00
48563;BME280;34981;49.104;11.396;2023-08-21T03:59:26;98228.06;;;21.89;100.00
48563;BME280;34981;49.104;11.396;2023-08-21T04:01:54;98277.41;;;21.84;100.00
48563;BME280;34981;49.104;11.396;2023-08-21T04:04:21;98313.84;;;21.84;100.00
48563;BME280;34981;49.104;11.396;2023-08-21T04:06:48;98325.00;;;21.88;100.00
48563;BME280;34981;49.104;11.396;2023-08-21T04:09:15;98329.94;;;21.86;100.00
48563;BME280;34981;49.104;11.396;2023-08-21T04:11:42;98344.78;;;21.80;100.00
48563;BME280;34981;49.104;11.396;2023-08-21T04:14:10;98380.41;;;21.74;100.00
48563;BME280;34981;49.104;11.396;2023-08-21T04:16:37;98426.69;;;21.71;100.00
48563;BME280;34981;49.104;11.396;2023-08-21T04:19:05;98463.06;;;21.82;100.00
48563;BME280;34981;49.104;11.396;2023-08-21T04:21:32;98475.31;;;21.94;100.00
48563;BME280;34981;49.104;11.396;2023-08-21T04:23:59;98496.78;;;21.72;100.00
48563;BME280;34981;49.104;11.396;2023-08-21T04:26:26;98550.16;;;21.80;100.00
48563;BME280;34981;49.104;11.396;2023-08-21T04:28:53;98583.56;;;21.82;100.00
48563;BME280;34981;49.104;11.396;2023-08-21T04:31:20;98601.88;;;21.86;100.00
48563;BME280;34981;49.104;11.396;2023-08-21T04:33:48;98605.72;;;21.90;100.00
48563;BME280;34981;49.104;11.396;2023-08-21T04:36:16;98644.06;;;21.70;100.00
48563;BME280;34981;49.104;11.396;2023-08-21T04:38:46;98721.56;;;21.70;100.00
48563;BME280;34981;49.104;11.396;2023-08-21T04:41:14;98764.28;;;21.82;100.00
48563;BME280;34981;49.104;11.396;2023-08-21T04:43:44;98776.88;;;21.93;100.00
48563;BME280;34981;49.104;11.396;2023-08-21T04:46:12;98782.34;;;21.93;100.00
48563;BME280;34981;49.104;11.396;2023-08-21T04:48:41;98818.78;;;21.78;100.00
48563;BME280;34981;49.104;11.396;2023-08-21T04:51:09;98866.97;;;21.79;100.00
48563;BME280;34981;49.104;11.396;2023-08-21T04:53:36;98913.56;;;21.89;100.00
48563;BME280;34981;49.104;11.396;2023-08-21T04:56:08;98935.47;;;21.89;100.00
48563;BME280;34981;49.104;11.396;2023-08-21T04:58:36;99002.00;;;21.85;100.00
48563;BME280;34981;49.104;11.396;2023-08-21T05:01:04;99048.69;;;22.05;100.00
48563;BME280;34981;49.104;11.396;2023-08-21T05:03:36;99061.41;;;22.46;100.00
48563;BME280;34981;49.104;11.396;2023-08-21T05:06:04;99120.06;;;22.40;100.00
48563;BME280;34981;49.104;11.396;2023-08-21T05:08:33;99184.19;;;22.34;100.00
48563;BME280;34981;49.104;11.396;2023-08-21T05:11:02;99301.50;;;22.32;100.00
48563;BME280;34981;49.104;11.396;2023-08-21T05:13:32;99403.97;;;22.26;100.00
48563;BME280;34981;49.104;11.396;2023-08-21T05:16:01;99477.50;;;22.34;100.00
48563;BME280;34981;49.104;11.396;2023-08-21T05:18:33;99533.78;;;22.42;100.00
48563;BME280;34981;49.104;11.396;2023-08-21T05:21:01;99571.94;;;22.48;100.00
48563;BME280;34981;49.104;11.396;2023-08-21T05:23:30;99626.19;;;22.46;100.00
48563;BME280;34981;49.104;11.396;2023-08-21T05:26:03;99690.25;;;22.35;100.00
48563;BME280;34981;49.104;11.396;2023-08-21T05:28:30;99792.81;;;22.39;100.00
48563;BME280;34981;49.104;11.396;2023-08-21T05:31:00;99840.06;;;22.46;100.00
48563;BME280;34981;49.104;11.396;2023-08-21T05:33:35;99894.31;;;22.44;100.00
48563;BME280;34981;49.104;11.396;2023-08-21T05:36:03;99959.00;;;22.57;100.00
48563;BME280;34981;49.104;11.396;2023-08-21T05:38:31;100018.25;;;22.75;100.00
48563;BME280;34981;49.104;11.396;2023-08-21T05:40:58;100059.50;;;22.80;100.00
48563;BME280;34981;49.104;11.396;2023-08-21T05:43:26;100135.16;;;23.09;100.00
48563;BME280;34981;49.104;11.396;2023-08-21T05:45:53;100133.94;;;23.17;100.00
48563;BME280;34981;49.104;11.396;2023-08-21T05:48:21;100206.66;;;23.31;100.00
48563;BME280;34981;49.104;11.396;2023-08-21T05:50:52;100270.03;;;23.58;100.00
48563;BME280;34981;49.104;11.396;2023-08-21T05:53:19;100369.00;;;24.25;100.00
48563;BME280;34981;49.104;11.396;2023-08-21T05:55:47;100397.69;;;24.67;100.00
48563;BME280;34981;49.104;11.396;2023-08-21T05:58:14;100381.75;;;25.08;100.00
48563;BME280;34981;49.104;11.396;2023-08-21T06:00:42;100327.16;;;25.27;100.00
48563;BME280;34981;49.104;11.396;2023-08-21T06:03:11;100283.56;;;25.50;100.00
48563;BME280;34981;49.104;11.396;2023-08-21T06:06:02;100164.25;;;25.50;100.00
48563;BME280;34981;49.104;11.396;2023-08-21T06:08:29;100097.41;;;25.59;100.00
48563;BME280;34981;49.104;11.396;2023-08-21T06:10:56;100050.63;;;25.80;100.00
48563;BME280;34981;49.104;11.396;2023-08-21T06:13:24;99947.53;;;25.71;100.00
48563;BME280;34981;49.104;11.396;2023-08-21T06:15:53;99923.31;;;26.03;100.00
48563;BME280;34981;49.104;11.396;2023-08-21T06:18:22;99892.75;;;26.40;100.00
48563;BME280;34981;49.104;11.396;2023-08-21T06:20:49;99828.06;;;26.82;100.00
48563;BME280;34981;49.104;11.396;2023-08-21T06:23:20;99677.75;;;26.59;100.00
48563;BME280;34981;49.104;11.396;2023-08-21T06:25:48;99647.84;;;26.71;100.00
48563;BME280;34981;49.104;11.396;2023-08-21T06:28:16;99543.25;;;27.03;100.00
48563;BME280;34981;49.104;11.396;2023-08-21T06:30:43;99427.47;;;27.36;100.00
48563;BME280;34981;49.104;11.396;2023-08-21T06:33:11;99196.84;;;27.47;100.00
48563;BME280;34981;49.104;11.396;2023-08-21T06:35:38;99018.97;;;27.43;100.00
48563;BME280;34981;49.104;11.396;2023-08-21T06:38:05;98915.03;;;27.74;100.00
48563;BME280;34981;49.104;11.396;2023-08-21T06:40:33;98790.66;;;27.97;100.00
48563;BME280;34981;49.104;11.396;2023-08-21T06:43:00;98681.38;;;28.30;100.00
48563;BME280;34981;49.104;11.396;2023-08-21T06:45:32;98480.47;;;28.03;100.00
48563;BME280;34981;49.104;11.396;2023-08-21T06:48:02;98437.84;;;27.96;100.00
48563;BME280;34981;49.104;11.396;2023-08-21T06:50:30;98350.66;;;27.89;100.00
48563;BME280;34981;49.104;11.396;2023-08-21T06:52:57;98262.16;;;28.41;100.00
48563;BME280;34981;49.104;11.396;2023-08-21T06:55:25;98070.28;;;28.37;100.00
48563;BME280;34981;49.104;11.396;2023-08-21T06:57:52;97924.63;;;28.12;100.00
48563;BME280;34981;49.104;11.396;2023-08-21T07:00:19;97856.03;;;28.47;100.00
48563;BME280;34981;49.104;11.396;2023-08-21T07:02:47;97749.38;;;28.37;100.00
48563;BME280;34981;49.104;11.396;2023-08-21T07:05:14;97680.03;;;28.54;100.00
48563;BME280;34981;49.104;11.396;2023-08-21T07:07:43;97555.28;;;28.35;100.00
48563;BME280;34981;49.104;11.396;2023-08-21T07:10:11;97483.72;;;28.34;100.00
48563;BME280;34981;49.104;11.396;2023-08-21T07:12:39;97437.06;;;28.32;100.00
48563;BME280;34981;49.104;11.396;2023-08-21T07:15:07;97416.53;;;28.85;100.00
48563;BME280;34981;49.104;11.396;2023-08-21T07:17:34;97272.56;;;29.01;100.00
48563;BME280;34981;49.104;11.396;2023-08-21T07:20:02;97140.38;;;29.14;100.00
48563;BME280;34981;49.104;11.396;2023-08-21T07:22:31;97029.31;;;29.38;100.00
48563;BME280;34981;49.104;11.396;2023-08-21T07:24:58;96997.88;;;29.30;100.00
48563;BME280;34981;49.104;11.396;2023-08-21T07:27:27;96856.13;;;29.44;100.00
48563;BME280;34981;49.104;11.396;2023-08-21T07:29:54;96767.50;;;29.48;100.00
48563;BME280;34981;49.104;11.396;2023-08-21T07:32:22;96632.81;;;29.66;100.00
48563;BME280;34981;49.104;11.396;2023-08-21T07:34:52;96592.16;;;29.77;100.00
48563;BME280;34981;49.104;11.396;2023-08-21T07:37:20;96511.84;;;29.84;100.00
48563;BME280;34981;49.104;11.396;2023-08-21T07:39:48;96444.25;;;29.96;100.00
48563;BME280;34981;49.104;11.396;2023-08-21T07:42:15;96367.34;;;29.89;100.00
48563;BME280;34981;49.104;11.396;2023-08-21T07:44:43;96314.84;;;30.10;100.00
48563;BME280;34981;49.104;11.396;2023-08-21T07:47:11;96155.59;;;30.04;100.00
48563;BME280;34981;49.104;11.396;2023-08-21T07:49:38;96077.63;;;30.31;100.00
48563;BME280;34981;49.104;11.396;2023-08-21T07:52:05;96006.72;;;30.37;100.00
48563;BME280;34981;49.104;11.396;2023-08-21T07:54:32;95900.09;;;30.45;100.00
48563;BME280;34981;49.104;11.396;2023-08-21T07:56:59;95767.75;;;30.45;100.00
48563;BME280;34981;49.104;11.396;2023-08-21T07:59:26;95713.50;;;30.34;100.00
48563;BME280;34981;49.104;11.396;2023-08-21T08:01:54;95660.31;;;30.49;100.00
48563;BME280;34981;49.104;11.396;2023-08-21T08:04:21;95637.63;;;30.72;100.00
48563;BME280;34981;49.104;11.396;2023-08-21T08:06:48;95598.81;;;30.65;100.00
48563;BME280;34981;49.104;11.396;2023-08-21T08:09:15;95578.22;;;30.63;100.00
48563;BME280;34981;49.104;11.396;2023-08-21T08:11:42;95602.50;;;31.00;100.00
48563;BME280;34981;49.104;11.396;2023-08-21T08:14:09;95556.31;;;31.20;100.00
48563;BME280;34981;49.104;11.396;2023-08-21T08:16:36;95555.22;;;31.85;100.00
48563;BME280;34981;49.104;11.396;2023-08-21T08:19:03;95560.22;;;31.94;100.00
48563;BME280;34981;49.104;11.396;2023-08-21T08:21:31;95562.47;;;31.76;100.00
48563;BME280;34981;49.104;11.396;2023-08-21T08:23:58;95557.44;;;31.94;100.00
48563;BME280;34981;49.104;11.396;2023-08-21T08:26:25;95591.94;;;32.00;100.00
48563;BME280;34981;49.104;11.396;2023-08-21T08:28:52;95588.03;;;31.94;100.00
48563;BME280;34981;49.104;11.396;2023-08-21T08:31:19;95622.72;;;32.16;100.00
48563;BME280;34981;49.104;11.396;2023-08-21T08:33:47;95621.16;;;32.15;100.00
48563;BME280;34981;49.104;11.396;2023-08-21T08:36:15;95653.69;;;32.22;100.00
48563;BME280;34981;49.104;11.396;2023-08-21T08:38:42;95680.09;;;32.03;100.00
48563;BME280;34981;49.104;11.396;2023-08-21T08:41:11;95712.63;;;32.06;100.00
48563;BME280;34981;49.104;11.396;2023-08-21T08:43:39;95731.19;;;32.20;100.00
48563;BME280;34981;49.104;11.396;2023-08-21T08:46:07;95717.56;;;32.59;100.00
48563;BME280;34981;49.104;11.396;2023-08-21T08:48:35;95676.00;;;32.75;100.00
48563;BME280;34981;49.104;11.396;2023-08-21T08:51:02;95660.38;;;32.55;100.00
48563;BME280;34981;49.104;11.396;2023-08-21T08:53:30;95679.97;;;32.78;100.00
48563;BME280;34981;49.104;11.396;2023-08-21T08:55:58;95649.84;;;32.66;100.00
48563;BME280;34981;49.104;11.396;2023-08-21T08:58:25;95633.06;;;32.46;100.00
48563;BME280;34981;49.104;11.396;2023-08-21T09:00:52;95643.78;;;32.47;100.00
48563;BME280;34981;49.104;11.396;2023-08-21T09:03:20;95636.78;;;32.36;100.00
48563;BME280;34981;49.104;11.396;2023-08-21T09:05:47;95680.03;;;32.40;100.00
48563;BME280;34981;49.104;11.396;2023-08-21T09:08:15;95663.34;;;32.71;100.00
48563;BME280;34981;49.104;11.396;2023-08-21T09:10:42;95656.44;;;33.06;100.00
48563;BME280;34981;49.104;11.396;2023-08-21T09:13:16;95648.91;;;33.03;100.00
48563;BME280;34981;49.104;11.396;2023-08-21T09:15:45;95621.28;;;33.39;100.00
48563;BME280;34981;49.104;11.396;2023-08-21T09:18:14;95582.28;;;33.39;100.00
48563;BME280;34981;49.104;11.396;2023-08-21T09:20:42;95561.53;;;33.20;100.00
48563;BME280;34981;49.104;11.396;2023-08-21T09:23:12;95544.19;;;32.59;100.00
48563;BME280;34981;49.104;11.396;2023-08-21T09:25:40;95518.94;;;32.50;100.00
48563;BME280;34981;49.104;11.396;2023-08-21T09:28:08;95547.28;;;33.14;100.00
48563;BME280;34981;49.104;11.396;2023-08-21T09:30:45;95529.50;;;32.85;100.00
48563;BME280;34981;49.104;11.396;2023-08-21T09:33:13;95513.34;;;33.19;100.00
48563;BME280;34981;49.104;11.396;2023-08-21T09:35:40;95514.25;;;33.36;100.00
48563;BME280;34981;49.104;11.396;2023-08-21T09:38:09;95515.75;;;33.17;100.00
48563;BME280;34981;49.104;11.396;2023-08-21T09:40:38;95526.19;;;33.37;100.00
48563;BME280;34981;49.104;11.396;2023-08-21T09:43:07;95518.66;;;33.34;100.00
48563;BME280;34981;49.104;11.396;2023-08-21T09:45:35;95517.72;;;33.20;100.00
48563;BME280;34981;49.104;11.396;2023-08-21T09:48:02;95512.03;;;33.28;100.00
48563;BME280;34981;49.104;11.396;2023-08-21T09:50:30;95521.81;;;33.55;100.00
48563;BME280;34981;49.104;11.396;2023-08-21T09:52:57;95534.13;;;33.38;100.00
48563;BME280;34981;49.104;11.396;2023-08-21T09:55:44;95539.19;;;33.23;100.00
48563;BME280;34981;49.104;11.396;2023-08-21T09:58:12;95548.94;;;33.32;100.00
48563;BME280;34981;49.104;11.396;2023-08-21T10:00:40;95546.13;;;33.35;100.00
48563;BME280;34981;49.104;11.396;2023-08-21T10:03:08;95548.41;;;33.40;100.00
48563;BME280;34981;49.104;11.396;2023-08-21T10:05:38;95540.50;;;33.39;100.00
48563;BME280;34981;49.104;11.396;2023-08-21T10:08:06;95578.22;;;33.63;100.00
48563;BME280;34981;49.104;11.396;2023-08-21T10:10:34;95574.50;;;33.50;100.00
48563;BME280;34981;49.104;11.396;2023-08-21T10:13:02;95551.34;;;33.53;100.00
48563;BME280;34981;49.104;11.396;2023-08-21T10:15:30;95521.03;;;33.55;100.00
48563;BME280;34981;49.104;11.396;2023-08-21T10:17:58;95502.78;;;33.70;100.00
48563;BME280;34981;49.104;11.396;2023-08-21T10:20:25;95499.38;;;33.23;100.00
48563;BME280;34981;49.104;11.396;2023-08-21T10:22:53;95494.81;;;33.72;100.00
48563;BME280;34981;49.104;11.396;2023-08-21T10:25:23;95517.50;;;33.74;100.00
48563;BME280;34981;49.104;11.396;2023-08-21T10:27:58;95529.72;;;33.80;100.00
48563;BME280;34981;49.104;11.396;2023-08-21T10:30:27;95541.59;;;33.61;100.00
48563;BME280;34981;49.104;11.396;2023-08-21T10:32:55;95493.16;;;33.94;100.00
48563;BME280;34981;49.104;11.396;2023-08-21T10:35:23;95506.41;;;33.51;100.00
48563;BME280;34981;49.104;11.396;2023-08-21T10:40:37;95444.19;;;33.54;100.00
48563;BME280;34981;49.104;11.396;2023-08-21T10:43:04;95433.50;;;33.72;100.00
48563;BME280;34981;49.104;11.396;2023-08-21T10:45:31;95436.44;;;33.45;100.00
48563;BME280;34981;49.104;11.396;2023-08-21T10:47:59;95416.84;;;33.49;100.00
48563;BME280;34981;49.104;11.396;2023-08-21T10:50:26;95437.16;;;33.30;100.00
48563;BME280;34981;49.104;11.396;2023-08-21T10:52:54;95440.78;;;33.66;100.00
48563;BME280;34981;49.104;11.396;2023-08-21T10:55:21;95460.16;;;33.73;100.00
48563;BME280;34981;49.104;11.396;2023-08-21T10:57:48;95427.06;;;33.75;100.00
48563;BME280;34981;49.104;11.396;2023-08-21T11:00:16;95448.13;;;33.17;100.00
48563;BME280;34981;49.104;11.396;2023-08-21T11:02:44;95448.03;;;33.44;100.00
48563;BME280;34981;49.104;11.396;2023-08-21T11:05:12;95439.78;;;33.56;100.00
48563;BME280;34981;49.104;11.396;2023-08-21T11:07:44;95415.47;;;33.57;100.00
48563;BME280;34981;49.104;11.396;2023-08-21T11:10:19;95421.91;;;33.54;100.00
48563;BME280;34981;49.104;11.396;2023-08-21T11:12:52;95436.09;;;33.23;100.00
48563;BME280;34981;49.104;11.396;2023-08-21T11:15:20;95417.03;;;33.22;100.00
48563;BME280;34981;49.104;11.396;2023-08-21T11:20:20;95430.97;;;33.22;100.00
48563;BME280;34981;49.104;11.396;2023-08-21T11:22:47;95444.63;;;33.13;100.00
48563;BME280;34981;49.104;11.396;2023-08-21T11:25:15;95424.44;;;33.29;100.00
48563;BME280;34981;49.104;11.396;2023-08-21T11:27:43;95426.34;;;33.32;100.00
48563;BME280;34981;49.104;11.396;2023-08-21T11:30:10;95455.97;;;33.02;100.00
48563;BME280;34981;49.104;11.396;2023-08-21T11:32:38;95422.63;;;33.18;100.00
48563;BME280;34981;49.104;11.396;2023-08-21T11:35:08;95405.00;;;33.45;100.00
48563;BME280;34981;49.104;11.396;2023-08-21T11:37:42;95430.25;;;33.38;100.00
48563;BME280;34981;49.104;11.396;2023-08-21T11:40:11;95444.31;;;33.31;100.00
48563;BME280;34981;49.104;11.396;2023-08-21T11:42:40;95412.56;;;33.44;100.00
48563;BME280;34981;49.104;11.396;2023-08-21T11:45:07;95396.03;;;33.73;100.00
48563;BME280;34981;49.104;11.396;2023-08-21T11:47:37;95403.97;;;33.55;100.00
48563;BME280;34981;49.104;11.396;2023-08-21T11:50:07;95432.22;;;33.37;100.00
48563;BME280;34981;49.104;11.396;2023-08-21T11:52:36;95396.19;;;33.46;100.00
48563;BME280;34981;49.104;11.396;2023-08-21T11:55:09;95436.75;;;33.31;100.00
48563;BME280;34981;49.104;11.396;2023-08-21T11:57:48;95416.50;;;33.07;100.00
48563;BME280;34981;49.104;11.396;2023-08-21T12:00:16;95418.00;;;33.32;100.00
48563;BME280;34981;49.104;11.396;2023-08-21T12:02:56;95408.44;;;33.52;100.00
48563;BME280;34981;49.104;11.396;2023-08-21T12:05:23;95432.84;;;33.65;100.00
48563;BME280;34981;49.104;11.396;2023-08-21T12:07:50;95441.78;;;33.16;100.00
48563;BME280;34981;49.104;11.396;2023-08-21T12:10:24;95382.50;;;32.76;100.00
48563;BME280;34981;49.104;11.396;2023-08-21T12:12:51;95413.56;;;32.95;100.00
48563;BME280;34981;49.104;11.396;2023-08-21T12:15:19;95430.78;;;33.49;100.00
48563;BME280;34981;49.104;11.396;2023-08-21T12:17:46;95456.50;;;33.56;100.00
48563;BME280;34981;49.104;11.396;2023-08-21T12:20:13;95463.28;;;33.55;100.00
48563;BME280;34981;49.104;11.396;2023-08-21T12:22:41;95449.28;;;33.79;100.00
48563;BME280;34981;49.104;11.396;2023-08-21T12:25:10;95413.13;;;33.75;100.00
48563;BME280;34981;49.104;11.396;2023-08-21T12:27:38;95417.66;;;33.30;100.00
48563;BME280;34981;49.104;11.396;2023-08-21T12:30:06;95431.50;;;33.53;100.00
48563;BME280;34981;49.104;11.396;2023-08-21T12:32:33;95507.56;;;33.73;100.00
48563;BME280;34981;49.104;11.396;2023-08-21T12:35:00;95479.44;;;33.64;100.00
48563;BME280;34981;49.104;11.396;2023-08-21T12:37:27;95444.66;;;33.52;100.00
48563;BME280;34981;49.104;11.396;2023-08-21T12:39:54;95468.75;;;33.43;100.00
48563;BME280;34981;49.104;11.396;2023-08-21T12:42:22;95506.16;;;33.42;100.00
48563;BME280;34981;49.104;11.396;2023-08-21T12:44:49;95507.03;;;33.39;100.00
48563;BME280;34981;49.104;11.396;2023-08-21T12:47:16;95492.91;;;33.30;100.00
48563;BME280;34981;49.104;11.396;2023-08-21T12:49:43;95527.81;;;33.54;100.00
48563;BME280;34981;49.104;11.396;2023-08-21T12:52:10;95534.69;;;33.49;100.00
48563;BME280;34981;49.104;11.396;2023-08-21T12:54:39;95526.75;;;33.48;100.00
48563;BME280;34981;49.104;11.396;2023-08-21T12:57:06;95493.09;;;33.58;100.00
48563;BME280;34981;49.104;11.396;2023-08-21T12:59:34;95527.81;;;33.54;100.00